Pagrindinis puslapis
METAR-TAF:

METAR-TAF

Oro uostai :

Nakhon Si Thammarat, Tailandas

platuma: 8-32-22N, ilguma: 99-56-41E, Aukštis: 4 m

Dabartinis oras

Ataskaita buvo paskelbta 2 valandos ir 27 minutes, ne 13:00 UTC
Vėjas 4 kt iš Šiaurės
Temperatūra 27°C
Drėgmė 79%
Slėgis 1010 hPa
Matomumas 10 km arba daugiau
Mažai debesys ne aukštis 2000 ft

METAR: VTSF 171300Z 35004KT 9999 FEW020 27/23 Q1010 NOSIG

Laikas: 22:27 (15:27 UTC)

Prognozė

Ataskaita buvo paskelbta 4 valandos ir 27 minutes, ne 11:00 UTC
Prognozė galioja nuo 17 metu 12 UTC su 18 metu 12 UTC
Vėjas 5 kt iš Rytų
Matomumas 10 km arba daugiau
Mažai debesys ne aukštis 2000 ft
Laikinai
nuo 18 metu 07 UTC su 18 metu 12 UTC
Vėjas 10 kt iš Pietų/Pietvakarių su gūsio iki 20 kt
Matomumas: 5000 m
Mažai debesys ne aukštis 1600 ft, Liūtiniai kamuoliniai debesys.
Išsisklaidę debesys ne aukštis 1800 ft
Su prošvaistėmis ne aukštis 10000 ft
perkūnija, lietus

TAF: VTSF 171100Z 1712/1812 09005KT 9999 FEW020 TEMPO 1807/1812 21010G20KT 5000 TSRA FEW016CB SCT018 BKN100

Orai ataskaitas ir orų prognozės (METAR, TAF).

turimą stotys yra geltonos ir raudonos taškus žemėlapyje.

Perkelti pele per norėdami pamatyti stoties vardą.

Tada spustelėkite, norėdami matyti oro stebėjimo ir prognozės.

Norėdami pakeisti žemėlapį: spustelėkite ant žalios mygtukų su juodo kryžiaus žemyn,; žalią mygtuką su brūkšneliu, jei norite nutolinti; arba žalių rodyklių gretimoms žemėlapius.


METAR-TAF: